createdAt,value
2023-05-19T00:01:17.866Z,101235.84
2023-05-19T00:03:57.828Z,101239.11
2023-05-19T00:06:27.583Z,101237.17
2023-05-19T00:08:58.828Z,101231.30
2023-05-19T00:11:29.558Z,101227.23
2023-05-19T00:13:58.605Z,101223.56
2023-05-19T00:16:28.209Z,101221.02
2023-05-19T00:18:57.244Z,101220.23
2023-05-19T00:21:24.217Z,101218.08
2023-05-19T00:23:51.062Z,101216.94
2023-05-19T00:26:18.200Z,101213.73
2023-05-19T00:28:53.321Z,101209.89
2023-05-19T00:31:20.733Z,101209.94
2023-05-19T00:33:47.576Z,101209.98
2023-05-19T00:36:14.355Z,101207.13
2023-05-19T00:38:41.123Z,101197.36
2023-05-19T00:41:07.887Z,101194.87
2023-05-19T00:43:34.765Z,101191.27
2023-05-19T00:46:02.364Z,101191.83
2023-05-19T00:48:29.378Z,101193.80
2023-05-19T00:51:04.462Z,101192.41
2023-05-19T00:53:35.617Z,101194.70
2023-05-19T00:56:03.393Z,101196.73
2023-05-19T00:58:32.719Z,101192.77
2023-05-19T01:01:04.712Z,101196.65
2023-05-19T01:03:35.643Z,101192.00
2023-05-19T01:06:07.459Z,101199.86
2023-05-19T01:08:36.350Z,101198.73
2023-05-19T01:11:08.078Z,101207.20
2023-05-19T01:13:36.372Z,101207.91
2023-05-19T01:16:22.554Z,101203.33
2023-05-19T01:19:19.940Z,101206.83
2023-05-19T01:22:01.171Z,101201.79
2023-05-19T01:24:28.049Z,101202.77
2023-05-19T01:27:31.924Z,101203.24
2023-05-19T01:30:17.370Z,101203.34
2023-05-19T01:32:47.982Z,101205.70
2023-05-19T01:35:16.797Z,101203.14
2023-05-19T01:37:45.410Z,101204.57
2023-05-19T01:40:12.868Z,101205.66
2023-05-19T01:42:41.642Z,101204.87
2023-05-19T01:45:12.021Z,101202.98
2023-05-19T01:47:42.702Z,101204.97
2023-05-19T01:50:10.027Z,101207.40
2023-05-19T01:52:36.860Z,101208.52
2023-05-19T01:55:03.960Z,101206.89
2023-05-19T01:57:43.850Z,101201.64
2023-05-19T02:00:54.879Z,101197.65
2023-05-19T02:03:43.903Z,101193.73
2023-05-19T02:06:33.091Z,101190.85
2023-05-19T02:09:04.555Z,101184.75
2023-05-19T02:11:42.486Z,101191.95
2023-05-19T02:14:17.970Z,101190.88
2023-05-19T02:16:48.761Z,101189.31
2023-05-19T02:19:27.274Z,101194.33
2023-05-19T02:21:55.421Z,101193.59
2023-05-19T02:24:23.143Z,101189.99
2023-05-19T02:26:52.108Z,101190.65
2023-05-19T02:29:20.118Z,101187.29
2023-05-19T02:31:47.545Z,101190.38
2023-05-19T02:34:14.837Z,101188.21
2023-05-19T02:36:45.761Z,101186.67
2023-05-19T02:39:12.651Z,101183.73
2023-05-19T02:41:39.404Z,101188.79
2023-05-19T02:44:06.424Z,101189.37
2023-05-19T02:46:33.958Z,101187.94
2023-05-19T02:49:00.958Z,101192.23
2023-05-19T02:51:27.846Z,101192.73
2023-05-19T02:53:54.704Z,101186.36
2023-05-19T02:56:21.809Z,101186.29
2023-05-19T02:58:48.614Z,101177.57
2023-05-19T03:01:16.635Z,101174.80
2023-05-19T03:03:43.649Z,101172.74
2023-05-19T03:06:10.597Z,101172.14
2023-05-19T03:08:38.434Z,101170.95
2023-05-19T03:11:06.594Z,101172.65
2023-05-19T03:13:33.642Z,101172.88
2023-05-19T03:16:00.438Z,101176.80
2023-05-19T03:18:27.295Z,101172.90
2023-05-19T03:20:54.221Z,101173.51
2023-05-19T03:23:24.069Z,101173.46
2023-05-19T03:25:51.004Z,101171.39
2023-05-19T03:28:18.225Z,101168.84
2023-05-19T03:30:45.341Z,101172.16
2023-05-19T03:33:16.992Z,101175.55
2023-05-19T03:35:45.727Z,101177.05
2023-05-19T03:38:13.357Z,101174.18
2023-05-19T03:40:41.928Z,101174.40
2023-05-19T03:43:10.462Z,101171.84
2023-05-19T03:45:42.969Z,101172.37
2023-05-19T03:48:38.948Z,101171.61
2023-05-19T03:51:28.605Z,101171.84
2023-05-19T03:53:57.397Z,101172.34
2023-05-19T03:56:26.729Z,101176.98
2023-05-19T03:58:54.997Z,101179.92
2023-05-19T04:01:22.338Z,101185.01
2023-05-19T04:03:49.144Z,101185.27
2023-05-19T04:06:15.935Z,101184.29
2023-05-19T04:08:44.413Z,101189.56
2023-05-19T04:11:12.873Z,101189.06
2023-05-19T04:13:39.677Z,101195.15
2023-05-19T04:16:07.064Z,101190.80
2023-05-19T04:18:33.967Z,101197.27
2023-05-19T04:21:01.884Z,101194.70
2023-05-19T04:23:28.649Z,101198.17
2023-05-19T04:25:57.185Z,101197.63
2023-05-19T04:28:24.301Z,101198.11
2023-05-19T04:30:51.720Z,101197.02
2023-05-19T04:33:20.289Z,101195.67
2023-05-19T04:35:47.506Z,101198.57
2023-05-19T04:38:19.048Z,101196.56
2023-05-19T04:40:50.447Z,101195.09
2023-05-19T04:43:19.446Z,101201.70
2023-05-19T04:45:47.471Z,101199.86
2023-05-19T04:48:15.399Z,101198.33
2023-05-19T04:50:42.418Z,101201.06
2023-05-19T04:53:11.521Z,101198.86
2023-05-19T04:55:39.006Z,101199.91
2023-05-19T04:58:06.589Z,101204.61
2023-05-19T05:00:35.756Z,101201.62
2023-05-19T05:03:05.228Z,101202.65
2023-05-19T05:05:32.695Z,101204.27
2023-05-19T05:07:59.615Z,101210.25
2023-05-19T05:10:28.068Z,101211.72
2023-05-19T05:12:55.341Z,101210.27
2023-05-19T05:15:22.626Z,101208.27
2023-05-19T05:17:50.671Z,101201.94
2023-05-19T05:20:19.689Z,101202.23
2023-05-19T05:22:46.879Z,101200.72
2023-05-19T05:25:16.474Z,101202.22
2023-05-19T05:27:43.835Z,101199.56
2023-05-19T05:30:10.869Z,101200.59
2023-05-19T05:32:38.083Z,101197.87
2023-05-19T05:35:10.396Z,101199.73
2023-05-19T05:37:38.226Z,101198.35
2023-05-19T05:40:07.162Z,101202.77
2023-05-19T05:42:34.143Z,101203.66
2023-05-19T05:45:00.958Z,101202.05
2023-05-19T05:47:28.677Z,101199.13
2023-05-19T05:49:56.125Z,101205.34
2023-05-19T05:52:30.459Z,101204.55
2023-05-19T05:54:59.179Z,101206.75
2023-05-19T05:57:27.079Z,101210.16
2023-05-19T05:59:53.784Z,101214.28
2023-05-19T06:02:21.016Z,101212.04
2023-05-19T06:04:47.879Z,101209.20
2023-05-19T06:07:14.588Z,101206.66
2023-05-19T06:09:41.529Z,101211.73
2023-05-19T06:12:08.976Z,101213.42
2023-05-19T06:14:43.011Z,101210.61
2023-05-19T06:17:09.807Z,101212.95
2023-05-19T06:19:36.529Z,101217.02
2023-05-19T06:22:03.416Z,101220.36
2023-05-19T06:24:30.684Z,101217.30
2023-05-19T06:26:57.552Z,101218.54
2023-05-19T06:29:24.427Z,101221.02
2023-05-19T06:31:52.625Z,101222.50
2023-05-19T06:34:21.150Z,101227.91
2023-05-19T06:36:47.898Z,101226.70
2023-05-19T06:39:14.691Z,101226.48
2023-05-19T06:41:41.824Z,101229.52
2023-05-19T06:44:09.254Z,101231.98
2023-05-19T06:46:36.056Z,101234.05
2023-05-19T06:49:04.319Z,101233.27
2023-05-19T06:51:33.583Z,101239.58
2023-05-19T06:54:00.552Z,101240.27
2023-05-19T06:56:27.703Z,101242.56
2023-05-19T06:58:56.102Z,101246.41
2023-05-19T07:01:26.691Z,101246.40
2023-05-19T07:03:54.720Z,101247.96
2023-05-19T07:06:21.839Z,101247.52
2023-05-19T07:08:48.766Z,101251.05
2023-05-19T07:11:16.836Z,101251.54
2023-05-19T07:13:44.116Z,101248.01
2023-05-19T07:16:11.291Z,101247.90
2023-05-19T07:18:38.365Z,101246.61
2023-05-19T07:21:05.678Z,101243.36
2023-05-19T07:23:32.443Z,101242.92
2023-05-19T07:25:59.427Z,101247.48
2023-05-19T07:28:26.198Z,101246.75
2023-05-19T07:30:53.352Z,101245.49
2023-05-19T07:33:20.091Z,101245.84
2023-05-19T07:35:47.170Z,101242.42
2023-05-19T07:38:14.065Z,101245.59
2023-05-19T07:40:40.942Z,101244.72
2023-05-19T07:43:07.721Z,101244.44
2023-05-19T07:45:34.680Z,101243.73
2023-05-19T07:48:01.562Z,101244.52
2023-05-19T07:50:28.410Z,101245.73
2023-05-19T07:52:56.017Z,101247.73
2023-05-19T07:55:26.389Z,101245.35
2023-05-19T07:57:53.165Z,101249.99
2023-05-19T08:00:20.437Z,101250.83
2023-05-19T08:02:47.469Z,101250.93
2023-05-19T08:05:14.396Z,101251.61
2023-05-19T08:07:41.133Z,101251.55
2023-05-19T08:10:08.151Z,101252.52
2023-05-19T08:12:35.088Z,101249.08
2023-05-19T08:15:02.163Z,101252.15
2023-05-19T08:17:29.065Z,101253.38
2023-05-19T08:19:55.862Z,101250.65
2023-05-19T08:22:22.627Z,101250.98
2023-05-19T08:24:52.411Z,101249.19
2023-05-19T08:27:19.088Z,101252.00
2023-05-19T08:29:45.880Z,101249.73
2023-05-19T08:32:13.452Z,101254.66
2023-05-19T08:34:41.337Z,101257.71
2023-05-19T08:37:08.343Z,101260.33
2023-05-19T08:39:35.123Z,101259.64
2023-05-19T08:42:02.598Z,101259.14
2023-05-19T08:44:31.021Z,101263.14
2023-05-19T08:47:05.194Z,101268.09
2023-05-19T08:49:43.438Z,101261.36
2023-05-19T08:52:21.113Z,101269.92
2023-05-19T08:55:01.046Z,101269.61
2023-05-19T08:57:28.795Z,101271.80
2023-05-19T08:59:57.031Z,101267.30
2023-05-19T09:02:24.626Z,101267.77
2023-05-19T09:04:52.963Z,101267.55
2023-05-19T09:07:21.250Z,101270.02
2023-05-19T09:09:48.831Z,101273.35
2023-05-19T09:12:15.567Z,101273.77
2023-05-19T09:14:42.651Z,101282.90
2023-05-19T09:17:10.140Z,101278.20
2023-05-19T09:19:43.154Z,101275.43
2023-05-19T09:22:10.007Z,101273.86
2023-05-19T09:24:37.963Z,101280.00
2023-05-19T09:27:04.860Z,101274.45
2023-05-19T09:29:31.589Z,101270.77
2023-05-19T09:32:01.620Z,101275.98
2023-05-19T09:34:28.527Z,101269.02
2023-05-19T09:36:55.639Z,101277.96
2023-05-19T09:39:24.105Z,101277.08
2023-05-19T09:41:55.524Z,101280.40
2023-05-19T09:44:29.731Z,101283.29
2023-05-19T09:46:58.360Z,101283.25
2023-05-19T09:49:29.831Z,101285.77
2023-05-19T09:51:58.406Z,101286.31
2023-05-19T09:54:28.597Z,101279.83
2023-05-19T09:56:59.250Z,101279.77
2023-05-19T09:59:27.588Z,101277.69
2023-05-19T10:01:57.329Z,101280.92
2023-05-19T10:04:27.173Z,101278.64
2023-05-19T10:06:55.369Z,101272.53
2023-05-19T10:09:26.913Z,101275.89
2023-05-19T10:11:55.449Z,101276.46
2023-05-19T10:14:26.286Z,101277.54
2023-05-19T10:16:55.241Z,101274.38
2023-05-19T10:19:24.160Z,101275.20
2023-05-19T10:21:52.160Z,101270.19
2023-05-19T10:24:19.600Z,101264.89
2023-05-19T10:27:02.454Z,101266.15
2023-05-19T10:29:33.537Z,101256.69
2023-05-19T10:32:08.936Z,101259.42
2023-05-19T10:34:45.611Z,101253.89
2023-05-19T10:37:36.871Z,101258.70
2023-05-19T10:40:20.378Z,101258.09
2023-05-19T10:43:16.939Z,101256.95
2023-05-19T10:45:49.481Z,101255.00
2023-05-19T10:48:17.515Z,101255.07
2023-05-19T10:50:46.910Z,101246.50
2023-05-19T10:53:18.603Z,101251.95
2023-05-19T10:55:52.904Z,101246.73
2023-05-19T10:58:39.307Z,101240.64
2023-05-19T11:01:13.703Z,101238.21
2023-05-19T11:03:59.683Z,101234.38
2023-05-19T11:06:36.281Z,101239.40
2023-05-19T11:09:12.639Z,101236.63
2023-05-19T11:11:54.029Z,101233.19
2023-05-19T11:14:25.674Z,101232.42
2023-05-19T11:16:59.687Z,101229.42
2023-05-19T11:19:34.411Z,101235.34
2023-05-19T11:22:12.454Z,101233.52
2023-05-19T11:24:54.309Z,101234.44
2023-05-19T11:27:31.646Z,101225.98
2023-05-19T11:30:11.854Z,101227.16
2023-05-19T11:32:39.591Z,101222.38
2023-05-19T11:35:08.162Z,101221.73
2023-05-19T11:37:35.199Z,101217.19
2023-05-19T11:40:04.858Z,101217.26
2023-05-19T11:42:32.229Z,101217.20
2023-05-19T11:44:58.968Z,101218.71
2023-05-19T11:47:25.998Z,101212.98
2023-05-19T11:49:56.710Z,101214.92
2023-05-19T11:52:24.480Z,101221.25
2023-05-19T11:54:51.809Z,101218.03
2023-05-19T11:57:18.653Z,101214.71
2023-05-19T11:59:48.425Z,101219.81
2023-05-19T12:02:25.127Z,101220.38
2023-05-19T12:04:52.361Z,101217.90
2023-05-19T12:07:23.020Z,101219.52
2023-05-19T12:09:54.844Z,101214.87
2023-05-19T12:12:23.130Z,101214.48
2023-05-19T12:14:51.991Z,101216.77
2023-05-19T12:17:20.821Z,101215.36
2023-05-19T12:19:49.449Z,101211.33
2023-05-19T12:22:17.574Z,101209.14
2023-05-19T12:24:45.212Z,101214.73
2023-05-19T12:27:27.923Z,101211.42
2023-05-19T12:29:57.324Z,101209.36
2023-05-19T12:32:28.988Z,101208.32
2023-05-19T12:34:57.402Z,101206.02
2023-05-19T12:37:30.220Z,101204.24
2023-05-19T12:39:57.967Z,101207.22
2023-05-19T12:42:30.948Z,101205.58
2023-05-19T12:45:00.677Z,101212.46
2023-05-19T12:47:33.814Z,101214.94
2023-05-19T12:50:00.871Z,101214.16
2023-05-19T12:52:29.960Z,101211.88
2023-05-19T12:55:01.961Z,101209.81
2023-05-19T12:57:32.513Z,101207.55
2023-05-19T13:00:14.998Z,101209.17
2023-05-19T13:05:48.514Z,101199.61
2023-05-19T13:08:24.785Z,101196.23
2023-05-19T13:10:51.629Z,101197.80
2023-05-19T13:13:19.439Z,101198.73
2023-05-19T13:15:49.204Z,101196.85
2023-05-19T13:18:16.898Z,101194.90
2023-05-19T13:20:45.131Z,101196.09
2023-05-19T13:23:13.013Z,101195.14
2023-05-19T13:25:41.343Z,101194.77
2023-05-19T13:28:08.658Z,101194.89
2023-05-19T13:30:38.743Z,101196.13
2023-05-19T13:33:06.352Z,101194.25
2023-05-19T13:35:42.244Z,101195.08
2023-05-19T13:38:10.832Z,101200.33
2023-05-19T13:40:38.546Z,101199.50
2023-05-19T13:43:06.168Z,101202.39
2023-05-19T13:45:33.103Z,101205.13
2023-05-19T13:47:59.972Z,101201.41
2023-05-19T13:50:26.818Z,101200.86
2023-05-19T13:52:54.064Z,101203.52
2023-05-19T13:55:21.154Z,101201.98
2023-05-19T13:57:47.950Z,101203.26
2023-05-19T14:00:15.225Z,101199.86
2023-05-19T14:02:42.500Z,101200.92
2023-05-19T14:05:09.564Z,101203.81
2023-05-19T14:07:37.187Z,101204.42
2023-05-19T14:10:06.878Z,101207.31
2023-05-19T14:12:49.322Z,101211.64
2023-05-19T14:15:23.919Z,101216.06
2023-05-19T14:17:50.745Z,101217.92
2023-05-19T14:20:17.549Z,101222.80
2023-05-19T14:22:44.441Z,101223.02
2023-05-19T14:25:11.426Z,101221.48
2023-05-19T14:27:40.505Z,101224.26
2023-05-19T14:30:09.783Z,101224.59
2023-05-19T14:32:36.628Z,101223.48
2023-05-19T14:35:03.992Z,101221.14
2023-05-19T14:37:32.280Z,101224.96
2023-05-19T14:39:59.547Z,101225.14
2023-05-19T14:42:26.340Z,101222.30
2023-05-19T14:44:53.142Z,101225.83
2023-05-19T14:47:19.878Z,101223.84
2023-05-19T14:49:46.710Z,101227.94
2023-05-19T14:52:13.468Z,101229.10
2023-05-19T14:54:40.262Z,101228.86
2023-05-19T14:57:08.243Z,101229.90
2023-05-19T14:59:38.338Z,101226.39
2023-05-19T15:02:05.648Z,101226.63
2023-05-19T15:04:32.424Z,101224.29
2023-05-19T15:09:32.488Z,101217.45
2023-05-19T15:12:01.294Z,101219.95
2023-05-19T15:14:30.121Z,101217.08
2023-05-19T15:16:57.988Z,101217.52
2023-05-19T15:19:25.060Z,101217.30
2023-05-19T15:21:52.034Z,101215.80
2023-05-19T15:24:19.308Z,101212.80
2023-05-19T15:26:47.228Z,101213.29
2023-05-19T15:29:13.991Z,101211.48
2023-05-19T15:31:41.139Z,101209.96
2023-05-19T15:34:08.281Z,101204.54
2023-05-19T15:36:35.095Z,101202.21
2023-05-19T15:39:01.840Z,101198.70
2023-05-19T15:41:31.649Z,101196.46
2023-05-19T15:44:00.649Z,101197.54
2023-05-19T15:46:28.459Z,101198.98
2023-05-19T15:48:55.611Z,101194.92
2023-05-19T15:51:23.013Z,101193.20
2023-05-19T15:53:49.954Z,101188.64
2023-05-19T15:56:16.942Z,101190.08
2023-05-19T15:58:43.684Z,101184.14
2023-05-19T16:01:10.555Z,101184.75
2023-05-19T16:03:37.934Z,101187.31
2023-05-19T16:06:05.053Z,101184.41
2023-05-19T16:08:32.021Z,101178.98
2023-05-19T16:10:58.792Z,101176.75
2023-05-19T16:13:25.492Z,101172.86
2023-05-19T16:15:52.820Z,101169.41
2023-05-19T16:18:19.765Z,101166.96
2023-05-19T16:20:46.526Z,101166.41
2023-05-19T16:23:13.352Z,101169.41
2023-05-19T16:25:40.132Z,101164.08
2023-05-19T16:28:07.111Z,101159.24
2023-05-19T16:30:34.264Z,101152.19
2023-05-19T16:33:01.484Z,101152.40
2023-05-19T16:35:29.684Z,101148.77
2023-05-19T16:37:56.563Z,101144.23
2023-05-19T16:40:23.425Z,101142.11
2023-05-19T16:42:52.833Z,101144.74
2023-05-19T16:45:19.766Z,101145.73
2023-05-19T16:47:46.912Z,101139.89
2023-05-19T16:50:13.942Z,101132.64
2023-05-19T16:52:40.871Z,101127.64
2023-05-19T16:55:08.040Z,101126.58
2023-05-19T16:57:34.898Z,101126.52
2023-05-19T17:00:01.769Z,101122.73
2023-05-19T17:02:28.617Z,101116.79
2023-05-19T17:04:55.706Z,101108.96
2023-05-19T17:07:22.510Z,101106.91
2023-05-19T17:09:49.412Z,101110.56
2023-05-19T17:12:16.347Z,101111.73
2023-05-19T17:14:43.655Z,101111.17
2023-05-19T17:17:10.716Z,101118.92
2023-05-19T17:19:37.573Z,101117.98
2023-05-19T17:22:04.633Z,101117.35
2023-05-19T17:24:33.368Z,101118.17
2023-05-19T17:27:00.881Z,101119.41
2023-05-19T17:29:30.659Z,101118.86
2023-05-19T17:31:57.590Z,101117.36
2023-05-19T17:34:24.628Z,101114.37
2023-05-19T17:36:51.412Z,101114.97
2023-05-19T17:39:20.310Z,101121.42
2023-05-19T17:41:47.170Z,101126.84
2023-05-19T17:44:13.923Z,101128.69
2023-05-19T17:46:40.785Z,101128.77
2023-05-19T17:49:07.852Z,101120.23
2023-05-19T17:51:34.983Z,101116.90
2023-05-19T17:54:02.055Z,101120.98
2023-05-19T17:56:34.296Z,101121.70
2023-05-19T17:59:01.024Z,101127.17
2023-05-19T18:01:28.157Z,101126.94
2023-05-19T18:03:55.313Z,101124.02
2023-05-19T18:06:24.303Z,101130.61
2023-05-19T18:08:52.665Z,101132.65
2023-05-19T18:11:19.741Z,101135.73
2023-05-19T18:13:46.514Z,101139.47
2023-05-19T18:16:14.691Z,101139.55
2023-05-19T18:18:43.795Z,101139.27
2023-05-19T18:21:17.801Z,101140.64
2023-05-19T18:23:45.955Z,101142.91
2023-05-19T18:26:13.346Z,101141.30
2023-05-19T18:28:41.314Z,101144.69
2023-05-19T18:31:17.428Z,101139.48
2023-05-19T18:33:46.062Z,101139.73
2023-05-19T18:36:13.722Z,101144.45
2023-05-19T18:38:41.056Z,101149.20
2023-05-19T18:41:08.160Z,101149.67
2023-05-19T18:43:35.052Z,101155.38
2023-05-19T18:46:01.796Z,101158.85
2023-05-19T18:48:29.437Z,101158.27
2023-05-19T18:50:57.368Z,101159.58
2023-05-19T18:53:24.496Z,101156.29
2023-05-19T18:55:51.187Z,101154.95
2023-05-19T18:58:18.739Z,101157.71
2023-05-19T19:00:45.664Z,101156.33
2023-05-19T19:03:12.849Z,101154.89
2023-05-19T19:05:39.742Z,101156.59
2023-05-19T19:08:06.671Z,101163.97
2023-05-19T19:10:34.969Z,101167.23
2023-05-19T19:13:01.994Z,101168.88
2023-05-19T19:15:28.798Z,101172.85
2023-05-19T19:17:55.621Z,101174.29
2023-05-19T19:20:22.719Z,101169.70
2023-05-19T19:22:49.628Z,101172.73
2023-05-19T19:25:16.880Z,101173.80
2023-05-19T19:27:43.934Z,101175.30
2023-05-19T19:30:13.804Z,101173.77
2023-05-19T19:32:40.770Z,101176.36
2023-05-19T19:35:07.941Z,101181.61
2023-05-19T19:37:34.795Z,101179.87
2023-05-19T19:40:01.953Z,101182.16
2023-05-19T19:42:30.322Z,101182.68
2023-05-19T19:44:57.619Z,101185.09
2023-05-19T19:47:24.460Z,101182.30
2023-05-19T19:49:51.461Z,101188.86
2023-05-19T19:52:18.332Z,101189.52
2023-05-19T19:54:45.195Z,101189.94
2023-05-19T19:57:16.889Z,101192.77
2023-05-19T19:59:43.799Z,101189.13
2023-05-19T20:02:10.802Z,101186.90
2023-05-19T20:04:37.892Z,101185.90
2023-05-19T20:07:05.068Z,101192.48
2023-05-19T20:09:31.806Z,101195.77
2023-05-19T20:11:58.766Z,101196.45
2023-05-19T20:14:25.545Z,101192.45
2023-05-19T20:16:52.361Z,101186.07
2023-05-19T20:19:19.191Z,101184.98
2023-05-19T20:21:46.358Z,101186.18
2023-05-19T20:24:13.076Z,101186.98
2023-05-19T20:26:39.842Z,101184.14
2023-05-19T20:29:06.682Z,101180.30
2023-05-19T20:31:33.501Z,101182.79
2023-05-19T20:34:01.769Z,101175.15
2023-05-19T20:36:28.785Z,101176.66
2023-05-19T20:38:55.911Z,101179.56
2023-05-19T20:41:22.698Z,101180.70
2023-05-19T20:43:49.463Z,101175.52
2023-05-19T20:46:16.471Z,101176.27
2023-05-19T20:48:43.279Z,101175.14
2023-05-19T20:51:10.005Z,101175.30
2023-05-19T20:53:36.707Z,101175.48
2023-05-19T20:56:05.381Z,101175.29
2023-05-19T20:58:32.378Z,101173.59
2023-05-19T21:00:59.198Z,101167.33
2023-05-19T21:03:27.149Z,101161.72
2023-05-19T21:05:55.318Z,101155.88
2023-05-19T21:08:22.801Z,101158.15
2023-05-19T21:10:49.608Z,101155.95
2023-05-19T21:13:17.465Z,101162.08
2023-05-19T21:15:44.413Z,101157.82
2023-05-19T21:18:12.644Z,101160.96
2023-05-19T21:20:39.933Z,101160.65
2023-05-19T21:23:06.876Z,101161.97
2023-05-19T21:25:33.821Z,101158.88
2023-05-19T21:28:00.758Z,101160.05
2023-05-19T21:30:28.731Z,101154.27
2023-05-19T21:32:55.730Z,101154.66
2023-05-19T21:35:22.665Z,101150.98
2023-05-19T21:37:49.391Z,101148.57
2023-05-19T21:40:16.411Z,101145.10
2023-05-19T21:42:43.371Z,101142.02
2023-05-19T21:45:11.012Z,101144.21
2023-05-19T21:47:37.767Z,101144.80
2023-05-19T21:50:04.942Z,101148.36
2023-05-19T21:52:31.627Z,101148.39
2023-05-19T21:54:58.470Z,101150.68
2023-05-19T21:57:25.227Z,101152.98
2023-05-19T21:59:51.999Z,101152.89
2023-05-19T22:02:18.742Z,101150.91
2023-05-19T22:04:45.817Z,101154.53
2023-05-19T22:07:12.575Z,101154.91
2023-05-19T22:09:39.324Z,101154.92
2023-05-19T22:12:06.678Z,101152.14
2023-05-19T22:14:33.440Z,101155.52
2023-05-19T22:17:00.150Z,101152.20
2023-05-19T22:19:26.884Z,101155.02
2023-05-19T22:22:01.966Z,101148.72
2023-05-19T22:24:32.672Z,101147.52
2023-05-19T22:26:59.440Z,101148.73
2023-05-19T22:29:26.171Z,101144.45
2023-05-19T22:31:52.983Z,101144.74
2023-05-19T22:34:19.979Z,101144.80
2023-05-19T22:36:46.825Z,101143.96
2023-05-19T22:39:13.717Z,101145.41
2023-05-19T22:41:41.008Z,101146.76
2023-05-19T22:44:10.415Z,101149.57
2023-05-19T22:46:37.295Z,101154.73
2023-05-19T22:49:04.073Z,101154.99
2023-05-19T22:51:31.254Z,101156.94
2023-05-19T22:53:57.970Z,101152.42
2023-05-19T22:56:24.682Z,101148.27
2023-05-19T22:58:51.560Z,101144.13
2023-05-19T23:01:18.987Z,101149.23
2023-05-19T23:03:45.910Z,101137.55
2023-05-19T23:06:12.729Z,101135.07
2023-05-19T23:08:39.769Z,101131.05
2023-05-19T23:11:07.349Z,101130.02
2023-05-19T23:13:34.034Z,101128.19
2023-05-19T23:16:01.065Z,101122.39
2023-05-19T23:18:27.817Z,101119.73
2023-05-19T23:20:54.521Z,101112.77
2023-05-19T23:23:21.255Z,101109.64
2023-05-19T23:25:47.974Z,101105.42
2023-05-19T23:28:14.661Z,101099.72
2023-05-19T23:30:41.425Z,101095.52
2023-05-19T23:33:08.153Z,101092.80
2023-05-19T23:35:35.399Z,101100.65
2023-05-19T23:38:02.518Z,101100.54
2023-05-19T23:40:29.228Z,101100.54
2023-05-19T23:42:55.964Z,101096.33
2023-05-19T23:45:22.670Z,101089.48
2023-05-19T23:47:49.424Z,101088.92
2023-05-19T23:50:16.343Z,101091.92
2023-05-19T23:52:43.079Z,101090.38
2023-05-19T23:55:10.143Z,101093.02
2023-05-19T23:57:36.900Z,101096.52
